General Rafael Buelna International Airport
MMMZ : now visible

Airfield :











YOU CAN JOIN US ON...

 
LOGIN :

Register | Disclaimer

   EN    FR    IT 

 









Legend :    VFR   Marginal VFR   IFR   Intensive IFR   Very Intensive IFR
Visi :
Ceiling :
>= 8 km
>= 3000ft
5 to 8 km
1000 to 3000 ft
1500m to 5 km
500 to 1000 ft
800 to 1500m
200 to 500 ft
< 800m
< 200 ft
Symbols :   Thunderstorms  Fog  Heavy snow  Heavy precipitations  Wind > 20 kt






- Airport Elevation : 38 ft
- IATA code : MZT


MMMZ - General Rafael Buelna International

CURRENT METAR :
  • 171543Z 05004KT 7SM SCT040 SCT070 BKN090 21/20 A2997 RMK 8/470 HZY TCU W ISOL CI

EXPIRED METARs :
  • 171444Z 00000KT 5SM SCT040 BKN080 BKN220 18/18 A2995 RMK SLP129 52017 956 8/472 HZY ISOL CU
  • 171343Z 00000KT 6SM SCT090 BKN240 18/18 A2992 RMK 8/072 HZY ISOL CU

TAF TAF MMMZ
Valid from the 17 at 12:00 until the 18 at 18:00 UTC


171146Z 1712/1818 05005KT 6SM HZ BKN100 OVC250 TX29/1721Z TN17/1712Z
FM171600 23010KT P6SM SCT090 SCT250
FM180200 02005KT P6SM SCT250
FM181600 23010KT P6SM SCT100 SCT250



MET'MAP, your aeronautical weather chart ! - Copyright ORBIFLY December 2007 - Disclaimer

ORBIFLY MET'MAP TEAM :

Programming & Development : Alexandra Zaïnal
Concept & original design : Baudouin d'Aumeries
Assistance for programming : Marc-Olivier Méhu
Technical & hardware support : Manuel Goepfert

Contact : metmap@orbifly.com




SOURCES & CREDITS :

   NOAA       Earth
Advisory